createdAt,value
2018-09-22T00:03:20.672Z,99.90
2018-09-22T00:08:23.912Z,99.90
2018-09-22T00:13:27.172Z,99.90
2018-09-22T00:18:30.427Z,99.90
2018-09-22T00:23:33.684Z,99.90
2018-09-22T00:28:36.958Z,99.90
2018-09-22T00:33:40.211Z,99.90
2018-09-22T00:38:43.474Z,99.90
2018-09-22T00:43:46.750Z,99.90
2018-09-22T00:48:50.025Z,99.90
2018-09-22T00:53:53.310Z,99.90
2018-09-22T00:58:56.586Z,99.90
2018-09-22T01:03:59.890Z,99.90
2018-09-22T01:09:03.419Z,99.90
2018-09-22T01:14:07.426Z,99.90
2018-09-22T01:19:10.674Z,99.90
2018-09-22T01:24:13.931Z,99.90
2018-09-22T01:29:17.199Z,99.90
2018-09-22T01:34:20.496Z,99.90
2018-09-22T01:39:23.771Z,99.90
2018-09-22T01:44:27.023Z,99.90
2018-09-22T01:49:30.287Z,99.90
2018-09-22T01:54:33.555Z,99.90
2018-09-22T01:59:36.810Z,99.90
2018-09-22T02:04:40.150Z,99.90
2018-09-22T02:09:43.434Z,99.90
2018-09-22T02:14:46.724Z,99.90
2018-09-22T02:19:49.984Z,99.90
2018-09-22T02:24:53.266Z,99.90
2018-09-22T02:29:56.655Z,99.90
2018-09-22T02:34:59.923Z,99.90
2018-09-22T02:45:06.694Z,99.90
2018-09-22T02:50:09.950Z,99.90
2018-09-22T02:55:13.210Z,99.90
2018-09-22T03:00:16.471Z,99.90
2018-09-22T03:05:19.739Z,99.90
2018-09-22T03:10:22.990Z,99.90
2018-09-22T03:15:26.302Z,99.90
2018-09-22T03:20:29.498Z,99.90
2018-09-22T03:25:32.820Z,99.90
2018-09-22T03:30:36.066Z,99.90
2018-09-22T03:35:39.318Z,99.90
2018-09-22T03:40:42.611Z,99.90
2018-09-22T03:45:45.868Z,99.90
2018-09-22T03:50:49.128Z,99.90
2018-09-22T03:55:52.415Z,99.90
2018-09-22T04:00:55.712Z,99.90
2018-09-22T04:05:59.015Z,99.90
2018-09-22T04:11:09.399Z,99.90
2018-09-22T04:16:12.650Z,99.90
2018-09-22T04:21:15.911Z,99.90
2018-09-22T04:26:19.168Z,99.90
2018-09-22T04:31:22.426Z,99.90
2018-09-22T04:36:25.693Z,99.90
2018-09-22T04:41:28.959Z,99.90
2018-09-22T04:46:32.221Z,99.90
2018-09-22T04:51:35.483Z,99.90
2018-09-22T04:56:38.724Z,99.90
2018-09-22T05:01:41.978Z,99.90
2018-09-22T05:06:45.249Z,99.90
2018-09-22T05:11:48.519Z,99.90
2018-09-22T05:16:51.826Z,99.90
2018-09-22T05:21:55.030Z,99.90
2018-09-22T05:26:58.284Z,99.90
2018-09-22T05:37:04.691Z,99.90
2018-09-22T05:42:08.486Z,99.90
2018-09-22T05:47:11.776Z,99.90
2018-09-22T05:52:15.055Z,99.90
2018-09-22T05:57:18.358Z,99.90
2018-09-22T06:02:21.636Z,99.90
2018-09-22T06:07:24.903Z,99.90
2018-09-22T06:12:28.195Z,99.90
2018-09-22T06:17:31.448Z,99.90
2018-09-22T06:22:34.707Z,99.90
2018-09-22T06:27:37.991Z,99.90
2018-09-22T06:32:41.255Z,99.90
2018-09-22T06:37:44.540Z,99.90
2018-09-22T06:47:50.921Z,99.90
2018-09-22T06:52:54.267Z,99.90
2018-09-22T06:57:57.851Z,99.90
2018-09-22T07:03:01.433Z,99.90
2018-09-22T07:08:05.107Z,99.90
2018-09-22T07:13:08.385Z,99.90
2018-09-22T07:18:11.650Z,99.90
2018-09-22T07:23:16.458Z,99.90
2018-09-22T07:28:19.720Z,99.90
2018-09-22T07:33:23.051Z,99.90
2018-09-22T07:38:26.790Z,99.90
2018-09-22T07:43:30.111Z,99.90
2018-09-22T07:48:33.406Z,99.90
2018-09-22T07:53:37.075Z,99.90
2018-09-22T07:58:41.633Z,99.90
2018-09-22T08:03:45.093Z,99.90
2018-09-22T08:08:48.553Z,99.90
2018-09-22T08:13:52.066Z,99.90
2018-09-22T08:23:58.490Z,99.90
2018-09-22T08:29:01.878Z,99.90
2018-09-22T08:39:10.155Z,99.90
2018-09-22T08:44:13.947Z,99.90
2018-09-22T08:49:18.900Z,99.90
2018-09-22T08:54:22.321Z,99.90
2018-09-22T08:59:26.318Z,99.90
2018-09-22T09:04:29.765Z,99.90
2018-09-22T09:09:33.641Z,99.90
2018-09-22T09:14:37.212Z,99.90
2018-09-22T09:19:40.600Z,99.90
2018-09-22T09:24:43.986Z,99.90
2018-09-22T09:29:47.335Z,99.90
2018-09-22T09:34:50.715Z,99.90
2018-09-22T09:44:57.842Z,99.90
2018-09-22T09:50:01.408Z,99.90
2018-09-22T09:55:08.484Z,99.90
2018-09-22T10:00:11.898Z,99.90
2018-09-22T10:05:15.335Z,99.90
2018-09-22T10:10:18.765Z,99.90
2018-09-22T10:15:22.776Z,99.90
2018-09-22T10:20:26.134Z,99.90
2018-09-22T10:25:29.679Z,99.90
2018-09-22T10:30:33.201Z,99.90
2018-09-22T10:35:36.686Z,99.90
2018-09-22T10:40:40.081Z,99.90
2018-09-22T10:45:43.457Z,99.90
2018-09-22T10:50:46.919Z,98.30
2018-09-22T10:55:50.254Z,98.50
2018-09-22T11:00:53.560Z,98.70
2018-09-22T11:05:56.823Z,96.50
2018-09-22T11:11:00.098Z,97.00
2018-09-22T11:16:03.361Z,93.80
2018-09-22T11:21:06.631Z,93.20
2018-09-22T11:26:09.903Z,92.80
2018-09-22T11:31:13.164Z,91.90
2018-09-22T11:36:16.412Z,91.10
2018-09-22T11:41:19.659Z,82.50
2018-09-22T11:46:23.015Z,76.00
2018-09-22T11:51:26.239Z,71.20
2018-09-22T11:56:29.530Z,68.30
2018-09-22T12:01:32.790Z,66.80
2018-09-22T12:06:36.136Z,68.80
2018-09-22T12:11:39.771Z,67.60
2018-09-22T12:21:46.000Z,67.50
2018-09-22T12:26:49.263Z,66.30
2018-09-22T12:36:55.575Z,66.10
2018-09-22T12:41:58.949Z,63.60
2018-09-22T12:47:02.196Z,67.30
2018-09-22T12:52:05.528Z,63.80
2018-09-22T12:57:08.811Z,64.70
2018-09-22T13:02:12.115Z,63.20
2018-09-22T13:07:15.380Z,64.40
2018-09-22T13:12:18.674Z,60.80
2018-09-22T13:17:21.928Z,60.20
2018-09-22T13:22:25.201Z,55.50
2018-09-22T13:27:28.447Z,55.80
2018-09-22T13:32:31.727Z,63.60
2018-09-22T13:37:35.000Z,61.40
2018-09-22T13:42:38.266Z,62.20
2018-09-22T13:47:41.529Z,63.60
2018-09-22T13:52:44.795Z,62.00
2018-09-22T13:57:48.057Z,62.40
2018-09-22T14:02:51.334Z,59.00
2018-09-22T14:12:57.587Z,57.50
2018-09-22T14:18:00.846Z,57.80
2018-09-22T14:23:04.107Z,58.40
2018-09-22T14:28:07.380Z,58.30
2018-09-22T14:33:10.627Z,58.80
2018-09-22T14:38:13.890Z,58.10
2018-09-22T14:43:17.127Z,54.00
2018-09-22T14:48:20.403Z,54.80
2018-09-22T14:53:23.787Z,56.90
2018-09-22T14:58:27.661Z,54.80
2018-09-22T15:03:30.958Z,53.10
2018-09-22T15:08:34.227Z,50.60
2018-09-22T15:13:37.487Z,51.70
2018-09-22T15:18:41.065Z,52.20
2018-09-22T15:23:44.858Z,53.90
2018-09-22T15:28:49.122Z,53.80
2018-09-22T15:33:53.046Z,51.20
2018-09-22T15:38:56.580Z,53.10
2018-09-22T15:43:59.882Z,53.90
2018-09-22T15:49:03.154Z,58.50
2018-09-22T15:54:06.222Z,57.10
2018-09-22T15:59:09.491Z,57.10
2018-09-22T16:04:12.743Z,58.00
2018-09-22T16:09:16.011Z,60.20
2018-09-22T16:14:19.563Z,61.50
2018-09-22T16:19:22.833Z,60.70
2018-09-22T16:24:26.084Z,61.50
2018-09-22T16:29:29.322Z,62.00
2018-09-22T16:34:32.570Z,62.50
2018-09-22T16:39:35.875Z,63.10
2018-09-22T16:44:41.518Z,63.60
2018-09-22T16:49:44.932Z,64.60
2018-09-22T16:54:48.167Z,65.20
2018-09-22T16:59:51.437Z,65.30
2018-09-22T17:04:54.858Z,65.50
2018-09-22T17:10:00.172Z,67.40
2018-09-22T17:15:03.423Z,67.30
2018-09-22T17:20:07.540Z,67.90
2018-09-22T17:25:10.791Z,68.00
2018-09-22T17:30:14.048Z,68.00
2018-09-22T17:35:17.294Z,69.00
2018-09-22T17:40:20.559Z,69.20
2018-09-22T17:45:23.823Z,70.30
2018-09-22T17:50:27.096Z,71.20
2018-09-22T17:55:30.318Z,70.90
2018-09-22T18:00:33.547Z,71.70
2018-09-22T18:05:37.212Z,72.30
2018-09-22T18:10:40.484Z,73.10
2018-09-22T18:15:43.752Z,73.30
2018-09-22T18:20:47.012Z,73.70
2018-09-22T18:25:50.300Z,74.90
2018-09-22T18:30:53.609Z,75.50
2018-09-22T18:35:56.869Z,74.60
2018-09-22T18:41:00.137Z,74.60
2018-09-22T18:46:04.047Z,75.30
2018-09-22T18:51:08.024Z,78.00
2018-09-22T18:56:11.363Z,78.60
2018-09-22T19:01:14.668Z,79.00
2018-09-22T19:06:17.927Z,78.50
2018-09-22T19:16:28.502Z,79.90
2018-09-22T19:26:45.452Z,81.50
2018-09-22T19:31:53.178Z,81.90
2018-09-22T19:42:07.603Z,80.70
2018-09-22T19:52:31.219Z,89.50
2018-09-22T19:57:34.534Z,93.00
2018-09-22T20:02:38.969Z,98.30
2018-09-22T20:17:48.546Z,99.90
2018-09-22T20:22:51.882Z,99.90
2018-09-22T20:27:55.861Z,99.90
2018-09-22T20:43:05.609Z,99.90
2018-09-22T21:03:17.927Z,99.90
2018-09-22T21:13:24.239Z,99.90
2018-09-22T21:18:27.562Z,99.90
2018-09-22T21:23:30.811Z,99.90
2018-09-22T21:28:34.282Z,99.90
2018-09-22T21:33:37.559Z,99.90
2018-09-22T21:43:44.215Z,99.90
2018-09-22T21:48:47.479Z,99.90
2018-09-22T21:53:50.755Z,99.90
2018-09-22T21:58:54.011Z,99.90
2018-09-22T22:03:57.263Z,99.90
2018-09-22T22:24:10.509Z,99.90
2018-09-22T22:39:20.411Z,99.90
2018-09-22T22:44:23.703Z,99.90
2018-09-22T22:54:30.812Z,99.90
2018-09-22T22:59:34.062Z,99.90
2018-09-22T23:19:47.767Z,99.90
2018-09-22T23:24:51.053Z,99.90
2018-09-22T23:29:54.630Z,99.90
2018-09-22T23:45:03.918Z,99.90
2018-09-22T23:50:07.238Z,99.90
2018-09-22T23:55:10.868Z,99.90
